Lumi/Jää/Keli Alkaa: 07-12-2019 22:00 Päättyy: 08-12-2019 08:00 Varoitus: Lumi/Jää/Keli Taso: Keltainen info button
suomi:
Liikennesää: Ajokeli muuttuu huonoksi iltayöstä alkaen lumisateen ja tienpintojen jäätymisen vuoksi.

svenska:
Trafikvädret: Väglaget blir dåligt från och med förnatten p.g.a. snöfall och tillfrysning av vägytor.

english:
Traffic weather warning: Bad road conditions are expected from the late evening on because of snow and ice-covered roads. 


Webkamera Lisätietoa Webcam


Varoitus: Lumi/Jää Lisätietoa

rain snow radar


Yksityisiä sääasemia lähellä:

Sääasema Juupajoki

Sääasema Orivesi

Sääasema Muurame

Sääasema Jyväskylä

Sääasema Vihtavuori


Löydät sääaseman tiedot myös:

Finland Weather Exchange

European Weather Network

Weather Underground

AWEKAS

Windy.com



Säätiedot lähimmiltä METAR asemilta

   
EFHA - Halli (Fin-Afb), Finland
Etäisyys asemalta: Kaakko 25 km
Päivitetty: 07.12.2019 21:50
Heikkoa sadetta, Pilvistä  
Heikkoa sadetta, Pilvistä  
   Tuuli: Luode 4.6 m/s
Tuuli: Luode 4.6 m/s
Lämpötila: 0°C
Tuulen hyytävyys: -4°C
Kastepiste: 0°C
Kosteus: 100%
Ilmanpaine: 978 hPa
Pilvisyys: Pilvistä
Näkyvyys: 9 km
Pilvitiedot: Pilvistä 91 m
EFHA 071950Z AUTO 32009KT 9000 -RA OVC003 00/M00 Q0978
EFJY - Jyvaskyla (Mil/Civ), Finland
Etäisyys asemalta: Koillinen 75 km
Päivitetty: 07.12.2019 21:50
Heikkoa lumisadetta, Sade, Pilvistä  
Heikkoa lumisadetta, Sade, Pilvistä  
   Tuuli: Pohjoisluode 6.2 m/s
Tuuli: Pohjoisluode 6.2 m/s
Lämpötila: 0°C
Tuulen hyytävyys: -6°C
Kastepiste: -1°C
Kosteus: 93%
Ilmanpaine: 977 hPa
Pilvisyys: Pilvistä
Näkyvyys: 9 km
Pilvitiedot: Pilvistä 152 m
EFJY 071950Z AUTO 33012KT 9000 -SNRA OVC005 00/M01 Q0977
EFTP - Tampere/Pirkkala, Finland
Etäisyys asemalta: Lounas 81 km
Päivitetty: 07.12.2019 21:50
Pilvistä  
Pilvistä  
   Tuuli: Luode 4.6 m/s
Tuuli: Luode 4.6 m/s
Lämpötila: 1°C
Tuulen hyytävyys: -3°C
Kastepiste: 0°C
Kosteus: 93%
Ilmanpaine: 980 hPa
Pilvisyys: Pilvistä
Näkyvyys: Enemmän kuin 10 km
Pilvitiedot: Pilvistä 183 m
EFTP 071950Z AUTO 31009KT 280V340 9999 OVC006 01/00 Q0980
EFSI - Seinajoki-Ilmajoki, Finland
Etäisyys asemalta: Luode 114 km
Päivitetty: 07.12.2019 21:50
Heikkoa sadetta, Lumisadetta, Pilvistä  
Heikkoa sadetta, Lumisadetta, Pilvistä  
   Tuuli: Länsi 2.6 m/s
Tuuli: Länsi 2.6 m/s
Lämpötila: 0°C
Tuulen hyytävyys: -3°C
Kastepiste: 0°C
Kosteus: 100%
Ilmanpaine: 981 hPa
Pilvisyys: Pilvistä
Näkyvyys: 8 km
Pilvitiedot: Melkein pilvistä 31 m,
Pilvistä 122 m
EFSI 071950Z AUTO 28005KT 240V310 8000 -RASN BKN001 OVC004 00/00 Q0981
EFMI - Mikkeli, Finland
Etäisyys asemalta: Itäkaakko 147 km
Päivitetty: 07.12.2019 21:50
Utua, Pilvistä  
Utua, Pilvistä  
   Tuuli: Eteläkaakko 3.6 m/s
Tuuli: Eteläkaakko 3.6 m/s
Lämpötila: 4°C
Tuulen hyytävyys: 1°C
Kastepiste: 4°C
Kosteus: 100%
Ilmanpaine: 978 hPa
Pilvisyys: Pilvistä
Näkyvyys: 5 km
Pilvitiedot: Pilvistä 122 m
EFMI 071950Z AUTO 16007KT 110V220 5000 BR OVC004 04/04 Q0978
EFPO - Pori (Mil/Civ), Finland
Etäisyys asemalta: Länsilounas 154 km
Päivitetty: 07.12.2019 21:50
Heikkoja sadekuuroja, Sade, Pilvistä  
Heikkoja sadekuuroja, Sade, Pilvistä  
   Tuuli: Länsiluode 3.6 m/s
Tuuli: Länsiluode 3.6 m/s
Lämpötila: 2°C
Tuulen hyytävyys: -2°C
Kastepiste: 1°C
Kosteus: 93%
Ilmanpaine: 983 hPa
Pilvisyys: Pilvistä
Näkyvyys: Enemmän kuin 10 km
Pilvitiedot: Puolipilvistä 396 m,
Melkein pilvistä 610 m,
Pilvistä 1890 m
EFPO 071950Z AUTO 30007KT 9999 -SHRA SCT013 BKN020 OVC062 02/01 Q0983
EFUT - Utti (Fin-Afb), Finland
Etäisyys asemalta: Kaakko 180 km
Päivitetty: 07.12.2019 21:50
Heikkoja sadekuuroja, Sade, Pilvistä  
Heikkoja sadekuuroja, Sade, Pilvistä  
   Tuuli: Etelä 4.6 m/s
Tuuli: Etelä 4.6 m/s
Lämpötila: 5°C
Tuulen hyytävyys: 2°C
Kastepiste: 4°C
Kosteus: 93%
Ilmanpaine: 978 hPa
Pilvisyys: Pilvistä
Näkyvyys: 4 km
Pilvitiedot: Pilvistä 61 m
EFUT 071950Z AUTO 18009KT 3600 -SHRA OVC002 05/04 Q0978
EFVA - Vaasa, Finland
Etäisyys asemalta: Luode 180 km
Päivitetty: 07.12.2019 21:50
Selkeää  
Selkeää  
   Tuuli: Länsiluode 2.1 m/s
Tuuli: Länsiluode 2.1 m/s
Lämpötila: 0°C
Tuulen hyytävyys: -3°C
Kastepiste: 0°C
Kosteus: 100%
Ilmanpaine: 982 hPa
Näkyvyys: Enemmän kuin 10 km
Pilvitiedot: Selkeää
EFVA 071950Z AUTO 29004KT CAVOK 00/M00 Q0982
EFHK - Helsinki/Vantaa, Finland
Etäisyys asemalta: Etelä 191 km
Päivitetty: 07.12.2019 21:50
Heikkoa tihkusadetta, Pilvistä  
Heikkoa tihkusadetta, Pilvistä  
   Tuuli: Etelälounas 4.1 m/s
Tuuli: Etelälounas 4.1 m/s
Lämpötila: 4°C
Tuulen hyytävyys: 1°C
Kastepiste: 4°C
Kosteus: 100%
Ilmanpaine: 979 hPa
Pilvisyys: Pilvistä
Näkyvyys: Enemmän kuin 10 km
Pilvitiedot: Melkein pilvistä 213 m,
Pilvistä 518 m
EFHK 071950Z 21008KT 9999 -DZ BKN007 OVC017 04/04 Q0979 TEMPO 7000

Alkuperäinen skripti  Saratoga-weather.org Sovitettu myös templatelle  Weerstation Leuven

Laitteet joita käytämme:

Sääasema
Davis VP2

Sääasemaohjelma
Cumulus

Sääaseman palvelin
HP ProBook 6460b

Palveluntarjoaja
Radicenter

Davis VP2

Cumulus

HP ProBook 6460b

Radicenter




Flag Counter Cumulus Top Weather Sites